sensor_id;sensor_type;location;lat;lon;timestamp;temperature;humidity
18741;DHT22;9499;52.472;13.448;2024-01-15T00:01:06;2.40;99.90
18741;DHT22;9499;52.472;13.448;2024-01-15T00:03:33;2.40;99.90
18741;DHT22;9499;52.472;13.448;2024-01-15T00:06:01;2.40;99.90
18741;DHT22;9499;52.472;13.448;2024-01-15T00:08:27;2.40;99.90
18741;DHT22;9499;52.472;13.448;2024-01-15T00:10:54;2.30;99.90
18741;DHT22;9499;52.472;13.448;2024-01-15T00:13:20;2.30;99.90
18741;DHT22;9499;52.472;13.448;2024-01-15T00:15:47;2.20;99.90
18741;DHT22;9499;52.472;13.448;2024-01-15T00:18:13;2.20;99.90
18741;DHT22;9499;52.472;13.448;2024-01-15T00:20:40;2.20;99.90
18741;DHT22;9499;52.472;13.448;2024-01-15T00:23:07;2.20;99.90
18741;DHT22;9499;52.472;13.448;2024-01-15T00:25:34;2.10;99.90
18741;DHT22;9499;52.472;13.448;2024-01-15T00:28:00;2.10;99.90
18741;DHT22;9499;52.472;13.448;2024-01-15T00:30:27;2.10;99.90
18741;DHT22;9499;52.472;13.448;2024-01-15T00:32:53;2.10;99.90
18741;DHT22;9499;52.472;13.448;2024-01-15T00:35:20;2.20;99.90
18741;DHT22;9499;52.472;13.448;2024-01-15T00:37:46;2.20;99.90
18741;DHT22;9499;52.472;13.448;2024-01-15T00:40:14;2.20;99.90
18741;DHT22;9499;52.472;13.448;2024-01-15T00:42:41;2.20;99.90
18741;DHT22;9499;52.472;13.448;2024-01-15T00:45:09;2.20;99.90
18741;DHT22;9499;52.472;13.448;2024-01-15T00:47:35;2.20;99.90
18741;DHT22;9499;52.472;13.448;2024-01-15T00:50:02;2.20;99.90
18741;DHT22;9499;52.472;13.448;2024-01-15T00:52:29;2.20;99.90
18741;DHT22;9499;52.472;13.448;2024-01-15T00:54:55;2.20;99.90
18741;DHT22;9499;52.472;13.448;2024-01-15T00:57:23;2.30;99.90
18741;DHT22;9499;52.472;13.448;2024-01-15T00:59:49;2.30;99.90
18741;DHT22;9499;52.472;13.448;2024-01-15T01:02:16;2.20;99.90
18741;DHT22;9499;52.472;13.448;2024-01-15T01:04:42;2.30;99.90
18741;DHT22;9499;52.472;13.448;2024-01-15T01:07:09;2.30;99.90
18741;DHT22;9499;52.472;13.448;2024-01-15T01:09:35;2.20;99.90
18741;DHT22;9499;52.472;13.448;2024-01-15T01:12:02;2.20;99.90
18741;DHT22;9499;52.472;13.448;2024-01-15T01:14:30;2.20;99.90
18741;DHT22;9499;52.472;13.448;2024-01-15T01:16:56;2.20;99.90
18741;DHT22;9499;52.472;13.448;2024-01-15T01:19:23;2.10;99.90
18741;DHT22;9499;52.472;13.448;2024-01-15T01:21:50;2.10;99.90
18741;DHT22;9499;52.472;13.448;2024-01-15T01:24:17;2.10;99.90
18741;DHT22;9499;52.472;13.448;2024-01-15T01:26:43;2.00;99.90
18741;DHT22;9499;52.472;13.448;2024-01-15T01:29:11;2.00;99.90
18741;DHT22;9499;52.472;13.448;2024-01-15T01:31:43;2.00;99.90
18741;DHT22;9499;52.472;13.448;2024-01-15T01:34:10;2.00;99.90
18741;DHT22;9499;52.472;13.448;2024-01-15T01:36:37;2.00;99.90
18741;DHT22;9499;52.472;13.448;2024-01-15T01:39:04;2.00;99.90
18741;DHT22;9499;52.472;13.448;2024-01-15T01:41:30;2.00;99.90
18741;DHT22;9499;52.472;13.448;2024-01-15T01:43:57;2.00;99.90
18741;DHT22;9499;52.472;13.448;2024-01-15T01:46:24;1.90;99.90
18741;DHT22;9499;52.472;13.448;2024-01-15T01:48:52;1.90;99.90
18741;DHT22;9499;52.472;13.448;2024-01-15T01:51:20;1.70;99.90
18741;DHT22;9499;52.472;13.448;2024-01-15T01:53:49;1.70;99.90
18741;DHT22;9499;52.472;13.448;2024-01-15T01:56:16;1.60;99.90
18741;DHT22;9499;52.472;13.448;2024-01-15T01:58:44;1.60;99.90
18741;DHT22;9499;52.472;13.448;2024-01-15T02:01:11;1.60;99.90
18741;DHT22;9499;52.472;13.448;2024-01-15T02:03:38;1.70;99.90
18741;DHT22;9499;52.472;13.448;2024-01-15T02:06:08;1.70;99.90
18741;DHT22;9499;52.472;13.448;2024-01-15T02:08:34;1.70;99.90
18741;DHT22;9499;52.472;13.448;2024-01-15T02:11:01;1.70;99.90
18741;DHT22;9499;52.472;13.448;2024-01-15T02:13:27;1.70;99.90
18741;DHT22;9499;52.472;13.448;2024-01-15T02:15:54;1.70;99.90
18741;DHT22;9499;52.472;13.448;2024-01-15T02:18:21;1.80;99.90
18741;DHT22;9499;52.472;13.448;2024-01-15T02:20:47;1.80;99.90
18741;DHT22;9499;52.472;13.448;2024-01-15T02:23:15;1.70;99.90
18741;DHT22;9499;52.472;13.448;2024-01-15T02:25:43;1.70;99.90
18741;DHT22;9499;52.472;13.448;2024-01-15T02:28:13;1.70;99.90
18741;DHT22;9499;52.472;13.448;2024-01-15T02:30:40;1.80;99.90
18741;DHT22;9499;52.472;13.448;2024-01-15T02:33:08;1.80;99.90
18741;DHT22;9499;52.472;13.448;2024-01-15T02:35:34;1.80;99.90
18741;DHT22;9499;52.472;13.448;2024-01-15T02:38:02;1.80;99.90
18741;DHT22;9499;52.472;13.448;2024-01-15T02:40:31;1.80;99.90
18741;DHT22;9499;52.472;13.448;2024-01-15T02:42:57;1.80;99.90
18741;DHT22;9499;52.472;13.448;2024-01-15T02:45:24;1.80;99.90
18741;DHT22;9499;52.472;13.448;2024-01-15T02:47:51;1.80;99.90
18741;DHT22;9499;52.472;13.448;2024-01-15T02:50:17;1.80;99.90
18741;DHT22;9499;52.472;13.448;2024-01-15T02:52:44;1.80;99.90
18741;DHT22;9499;52.472;13.448;2024-01-15T02:55:10;1.80;99.90
18741;DHT22;9499;52.472;13.448;2024-01-15T02:57:38;1.80;99.90
18741;DHT22;9499;52.472;13.448;2024-01-15T03:00:05;1.80;99.90
18741;DHT22;9499;52.472;13.448;2024-01-15T03:02:32;1.80;99.90
18741;DHT22;9499;52.472;13.448;2024-01-15T03:04:59;1.80;99.90
18741;DHT22;9499;52.472;13.448;2024-01-15T03:07:25;1.80;99.90
18741;DHT22;9499;52.472;13.448;2024-01-15T03:09:52;1.90;99.90
18741;DHT22;9499;52.472;13.448;2024-01-15T03:12:18;1.90;99.90
18741;DHT22;9499;52.472;13.448;2024-01-15T03:14:46;1.90;99.90
18741;DHT22;9499;52.472;13.448;2024-01-15T03:17:12;1.80;99.90
18741;DHT22;9499;52.472;13.448;2024-01-15T03:19:39;1.80;99.90
18741;DHT22;9499;52.472;13.448;2024-01-15T03:22:05;1.80;99.90
18741;DHT22;9499;52.472;13.448;2024-01-15T03:24:34;1.80;99.90
18741;DHT22;9499;52.472;13.448;2024-01-15T03:27:00;1.80;99.90
18741;DHT22;9499;52.472;13.448;2024-01-15T03:29:27;1.80;99.90
18741;DHT22;9499;52.472;13.448;2024-01-15T03:31:55;1.80;99.90
18741;DHT22;9499;52.472;13.448;2024-01-15T03:34:21;1.90;99.90
18741;DHT22;9499;52.472;13.448;2024-01-15T03:36:48;1.90;99.90
18741;DHT22;9499;52.472;13.448;2024-01-15T03:39:14;1.80;99.90
18741;DHT22;9499;52.472;13.448;2024-01-15T03:41:41;1.90;99.90
18741;DHT22;9499;52.472;13.448;2024-01-15T03:44:06;1.90;99.90
18741;DHT22;9499;52.472;13.448;2024-01-15T03:46:33;1.90;99.90
18741;DHT22;9499;52.472;13.448;2024-01-15T03:49:00;1.90;99.90
18741;DHT22;9499;52.472;13.448;2024-01-15T03:51:27;1.90;99.90
18741;DHT22;9499;52.472;13.448;2024-01-15T03:53:53;1.90;99.90
18741;DHT22;9499;52.472;13.448;2024-01-15T03:56:20;1.90;99.90
18741;DHT22;9499;52.472;13.448;2024-01-15T03:58:46;2.00;99.90
18741;DHT22;9499;52.472;13.448;2024-01-15T04:01:13;2.00;99.90
18741;DHT22;9499;52.472;13.448;2024-01-15T04:03:39;2.00;99.90
18741;DHT22;9499;52.472;13.448;2024-01-15T04:06:07;2.00;99.90
18741;DHT22;9499;52.472;13.448;2024-01-15T04:08:34;2.00;99.90
18741;DHT22;9499;52.472;13.448;2024-01-15T04:11:01;2.00;99.90
18741;DHT22;9499;52.472;13.448;2024-01-15T04:13:27;2.00;99.90
18741;DHT22;9499;52.472;13.448;2024-01-15T04:15:54;2.00;99.90
18741;DHT22;9499;52.472;13.448;2024-01-15T04:18:20;2.00;99.90
18741;DHT22;9499;52.472;13.448;2024-01-15T04:20:47;2.00;99.90
18741;DHT22;9499;52.472;13.448;2024-01-15T04:23:15;2.00;99.90
18741;DHT22;9499;52.472;13.448;2024-01-15T04:25:41;2.00;99.90
18741;DHT22;9499;52.472;13.448;2024-01-15T04:28:08;2.00;99.90
18741;DHT22;9499;52.472;13.448;2024-01-15T04:30:34;2.00;99.90
18741;DHT22;9499;52.472;13.448;2024-01-15T04:33:01;2.00;99.90
18741;DHT22;9499;52.472;13.448;2024-01-15T04:35:28;2.10;99.90
18741;DHT22;9499;52.472;13.448;2024-01-15T04:37:54;2.10;99.90
18741;DHT22;9499;52.472;13.448;2024-01-15T04:40:22;2.10;99.90
18741;DHT22;9499;52.472;13.448;2024-01-15T04:42:49;2.10;99.90
18741;DHT22;9499;52.472;13.448;2024-01-15T04:45:15;2.10;99.90
18741;DHT22;9499;52.472;13.448;2024-01-15T04:47:43;2.10;99.90
18741;DHT22;9499;52.472;13.448;2024-01-15T04:50:10;2.20;99.90
18741;DHT22;9499;52.472;13.448;2024-01-15T04:52:36;2.20;99.90
18741;DHT22;9499;52.472;13.448;2024-01-15T04:55:03;2.20;99.90
18741;DHT22;9499;52.472;13.448;2024-01-15T04:57:31;2.10;99.90
18741;DHT22;9499;52.472;13.448;2024-01-15T04:59:58;2.20;99.90
18741;DHT22;9499;52.472;13.448;2024-01-15T05:02:24;2.20;99.90
18741;DHT22;9499;52.472;13.448;2024-01-15T05:04:51;2.20;99.90
18741;DHT22;9499;52.472;13.448;2024-01-15T05:07:17;2.20;99.90
18741;DHT22;9499;52.472;13.448;2024-01-15T05:09:44;2.20;99.90
18741;DHT22;9499;52.472;13.448;2024-01-15T05:12:10;2.20;99.90
18741;DHT22;9499;52.472;13.448;2024-01-15T05:14:38;2.20;99.90
18741;DHT22;9499;52.472;13.448;2024-01-15T05:17:04;2.20;99.90
18741;DHT22;9499;52.472;13.448;2024-01-15T05:19:31;2.20;99.90
18741;DHT22;9499;52.472;13.448;2024-01-15T05:21:57;2.20;99.90
18741;DHT22;9499;52.472;13.448;2024-01-15T05:24:24;2.20;99.90
18741;DHT22;9499;52.472;13.448;2024-01-15T05:26:51;2.20;99.90
18741;DHT22;9499;52.472;13.448;2024-01-15T05:29:18;2.20;99.90
18741;DHT22;9499;52.472;13.448;2024-01-15T05:31:46;2.10;99.90
18741;DHT22;9499;52.472;13.448;2024-01-15T05:34:12;2.20;99.90
18741;DHT22;9499;52.472;13.448;2024-01-15T05:36:39;2.20;99.90
18741;DHT22;9499;52.472;13.448;2024-01-15T05:39:05;2.20;99.90
18741;DHT22;9499;52.472;13.448;2024-01-15T05:41:32;2.20;99.90
18741;DHT22;9499;52.472;13.448;2024-01-15T05:43:58;2.20;99.90
18741;DHT22;9499;52.472;13.448;2024-01-15T05:46:25;2.20;1.00
18741;DHT22;9499;52.472;13.448;2024-01-15T05:48:53;2.30;1.00
18741;DHT22;9499;52.472;13.448;2024-01-15T05:51:19;2.30;1.00
18741;DHT22;9499;52.472;13.448;2024-01-15T05:53:46;2.30;1.00
18741;DHT22;9499;52.472;13.448;2024-01-15T05:56:12;2.30;1.00
18741;DHT22;9499;52.472;13.448;2024-01-15T05:58:39;2.30;1.00
18741;DHT22;9499;52.472;13.448;2024-01-15T06:01:05;2.30;1.00
18741;DHT22;9499;52.472;13.448;2024-01-15T06:03:32;2.30;1.00
18741;DHT22;9499;52.472;13.448;2024-01-15T06:05:59;2.20;1.00
18741;DHT22;9499;52.472;13.448;2024-01-15T06:08:26;2.20;1.00
18741;DHT22;9499;52.472;13.448;2024-01-15T06:10:53;2.10;1.00
18741;DHT22;9499;52.472;13.448;2024-01-15T06:13:19;2.10;5.80
18741;DHT22;9499;52.472;13.448;2024-01-15T06:15:46;2.10;4.70
18741;DHT22;9499;52.472;13.448;2024-01-15T06:18:12;2.10;1.00
18741;DHT22;9499;52.472;13.448;2024-01-15T06:20:39;2.10;1.00
18741;DHT22;9499;52.472;13.448;2024-01-15T06:23:07;2.10;1.00
18741;DHT22;9499;52.472;13.448;2024-01-15T06:25:33;2.20;1.00
18741;DHT22;9499;52.472;13.448;2024-01-15T06:28:00;2.20;1.00
18741;DHT22;9499;52.472;13.448;2024-01-15T06:30:26;2.20;1.00
18741;DHT22;9499;52.472;13.448;2024-01-15T06:32:53;2.20;1.00
18741;DHT22;9499;52.472;13.448;2024-01-15T06:35:19;2.20;1.00
18741;DHT22;9499;52.472;13.448;2024-01-15T06:37:46;2.20;1.00
18741;DHT22;9499;52.472;13.448;2024-01-15T06:40:14;2.20;1.00
18741;DHT22;9499;52.472;13.448;2024-01-15T06:42:41;2.10;1.00
18741;DHT22;9499;52.472;13.448;2024-01-15T06:45:08;2.10;1.00
18741;DHT22;9499;52.472;13.448;2024-01-15T06:47:35;2.10;1.00
18741;DHT22;9499;52.472;13.448;2024-01-15T06:50:01;2.10;1.00
18741;DHT22;9499;52.472;13.448;2024-01-15T06:52:27;2.20;1.00
18741;DHT22;9499;52.472;13.448;2024-01-15T06:54:54;2.20;1.00
18741;DHT22;9499;52.472;13.448;2024-01-15T06:57:22;2.20;1.00
18741;DHT22;9499;52.472;13.448;2024-01-15T06:59:49;2.20;1.00
18741;DHT22;9499;52.472;13.448;2024-01-15T07:02:15;2.20;1.00
18741;DHT22;9499;52.472;13.448;2024-01-15T07:04:41;2.20;1.00
18741;DHT22;9499;52.472;13.448;2024-01-15T07:07:08;2.30;1.00
18741;DHT22;9499;52.472;13.448;2024-01-15T07:09:34;2.30;1.00
18741;DHT22;9499;52.472;13.448;2024-01-15T07:12:01;2.30;1.00
18741;DHT22;9499;52.472;13.448;2024-01-15T07:14:29;2.30;1.00
18741;DHT22;9499;52.472;13.448;2024-01-15T07:16:55;2.40;1.00
18741;DHT22;9499;52.472;13.448;2024-01-15T07:19:22;2.40;1.00
18741;DHT22;9499;52.472;13.448;2024-01-15T07:21:49;2.40;99.90
18741;DHT22;9499;52.472;13.448;2024-01-15T07:24:15;2.40;99.90
18741;DHT22;9499;52.472;13.448;2024-01-15T07:26:42;2.50;99.90
18741;DHT22;9499;52.472;13.448;2024-01-15T07:29:08;2.50;99.90
18741;DHT22;9499;52.472;13.448;2024-01-15T07:31:36;2.50;99.90
18741;DHT22;9499;52.472;13.448;2024-01-15T07:34:02;2.50;99.90
18741;DHT22;9499;52.472;13.448;2024-01-15T07:36:29;2.50;1.00
18741;DHT22;9499;52.472;13.448;2024-01-15T07:38:55;2.50;1.00
18741;DHT22;9499;52.472;13.448;2024-01-15T07:41:22;2.50;99.90
18741;DHT22;9499;52.472;13.448;2024-01-15T07:43:48;2.50;99.90
18741;DHT22;9499;52.472;13.448;2024-01-15T07:46:15;2.60;99.90
18741;DHT22;9499;52.472;13.448;2024-01-15T07:48:43;2.60;99.90
18741;DHT22;9499;52.472;13.448;2024-01-15T07:51:09;2.60;99.90
18741;DHT22;9499;52.472;13.448;2024-01-15T07:53:36;2.60;99.90
18741;DHT22;9499;52.472;13.448;2024-01-15T07:56:03;2.60;99.90
18741;DHT22;9499;52.472;13.448;2024-01-15T07:58:29;2.60;99.90
18741;DHT22;9499;52.472;13.448;2024-01-15T08:00:55;2.60;99.90
18741;DHT22;9499;52.472;13.448;2024-01-15T08:03:22;2.60;99.90
18741;DHT22;9499;52.472;13.448;2024-01-15T08:05:50;2.60;1.00
18741;DHT22;9499;52.472;13.448;2024-01-15T08:08:18;2.60;1.00
18741;DHT22;9499;52.472;13.448;2024-01-15T08:10:47;2.60;99.90
18741;DHT22;9499;52.472;13.448;2024-01-15T08:13:13;2.60;94.50
18741;DHT22;9499;52.472;13.448;2024-01-15T08:15:40;2.60;99.90
18741;DHT22;9499;52.472;13.448;2024-01-15T08:18:07;2.60;1.00
18741;DHT22;9499;52.472;13.448;2024-01-15T08:20:34;2.60;1.00
18741;DHT22;9499;52.472;13.448;2024-01-15T08:23:02;2.60;1.00
18741;DHT22;9499;52.472;13.448;2024-01-15T08:25:28;2.60;17.60
18741;DHT22;9499;52.472;13.448;2024-01-15T08:27:56;2.60;99.90
18741;DHT22;9499;52.472;13.448;2024-01-15T08:30:22;2.60;99.90
18741;DHT22;9499;52.472;13.448;2024-01-15T08:32:52;2.60;1.00
18741;DHT22;9499;52.472;13.448;2024-01-15T08:35:19;2.60;1.00
18741;DHT22;9499;52.472;13.448;2024-01-15T08:37:48;2.60;99.90
18741;DHT22;9499;52.472;13.448;2024-01-15T08:40:16;2.60;99.90
18741;DHT22;9499;52.472;13.448;2024-01-15T08:42:42;2.60;99.90
18741;DHT22;9499;52.472;13.448;2024-01-15T08:45:09;2.60;99.90
18741;DHT22;9499;52.472;13.448;2024-01-15T08:47:36;2.70;90.20
18741;DHT22;9499;52.472;13.448;2024-01-15T08:50:03;2.70;99.90
18741;DHT22;9499;52.472;13.448;2024-01-15T08:52:30;2.70;13.20
18741;DHT22;9499;52.472;13.448;2024-01-15T08:54:57;2.70;1.00
18741;DHT22;9499;52.472;13.448;2024-01-15T08:57:25;2.70;1.00
18741;DHT22;9499;52.472;13.448;2024-01-15T08:59:51;2.70;1.00
18741;DHT22;9499;52.472;13.448;2024-01-15T09:02:17;2.70;99.90
18741;DHT22;9499;52.472;13.448;2024-01-15T09:04:44;2.70;99.90
18741;DHT22;9499;52.472;13.448;2024-01-15T09:07:10;2.70;1.00
18741;DHT22;9499;52.472;13.448;2024-01-15T09:09:37;2.70;1.00
18741;DHT22;9499;52.472;13.448;2024-01-15T09:12:04;2.70;1.00
18741;DHT22;9499;52.472;13.448;2024-01-15T09:14:32;2.70;99.90
18741;DHT22;9499;52.472;13.448;2024-01-15T09:16:59;2.70;42.70
18741;DHT22;9499;52.472;13.448;2024-01-15T09:19:26;2.80;47.50
18741;DHT22;9499;52.472;13.448;2024-01-15T09:21:52;2.70;1.00
18741;DHT22;9499;52.472;13.448;2024-01-15T09:24:19;2.70;46.10
18741;DHT22;9499;52.472;13.448;2024-01-15T09:26:45;2.80;99.90
18741;DHT22;9499;52.472;13.448;2024-01-15T09:29:12;2.80;99.90
18741;DHT22;9499;52.472;13.448;2024-01-15T09:31:42;2.80;1.00
18741;DHT22;9499;52.472;13.448;2024-01-15T09:34:09;2.80;1.00
18741;DHT22;9499;52.472;13.448;2024-01-15T09:36:39;2.70;1.00
18741;DHT22;9499;52.472;13.448;2024-01-15T09:39:06;2.80;1.00
18741;DHT22;9499;52.472;13.448;2024-01-15T09:41:34;2.80;1.00
18741;DHT22;9499;52.472;13.448;2024-01-15T09:44:02;2.80;1.00
18741;DHT22;9499;52.472;13.448;2024-01-15T09:46:29;2.80;1.00
18741;DHT22;9499;52.472;13.448;2024-01-15T09:48:58;2.80;99.90
18741;DHT22;9499;52.472;13.448;2024-01-15T09:51:25;2.80;99.90
18741;DHT22;9499;52.472;13.448;2024-01-15T09:53:51;2.80;1.00
18741;DHT22;9499;52.472;13.448;2024-01-15T09:56:19;2.80;99.90
18741;DHT22;9499;52.472;13.448;2024-01-15T09:58:47;2.70;1.00
18741;DHT22;9499;52.472;13.448;2024-01-15T10:01:14;2.80;1.00
18741;DHT22;9499;52.472;13.448;2024-01-15T10:03:42;2.80;1.00
18741;DHT22;9499;52.472;13.448;2024-01-15T10:06:11;2.90;1.00
18741;DHT22;9499;52.472;13.448;2024-01-15T10:08:41;2.90;99.90
18741;DHT22;9499;52.472;13.448;2024-01-15T10:11:09;2.90;99.90
18741;DHT22;9499;52.472;13.448;2024-01-15T10:13:36;2.90;99.90
18741;DHT22;9499;52.472;13.448;2024-01-15T10:16:03;2.90;1.00
18741;DHT22;9499;52.472;13.448;2024-01-15T10:18:30;2.90;1.00
18741;DHT22;9499;52.472;13.448;2024-01-15T10:20:57;3.00;99.90
18741;DHT22;9499;52.472;13.448;2024-01-15T10:23:25;3.00;71.20
18741;DHT22;9499;52.472;13.448;2024-01-15T10:25:51;3.00;99.90
18741;DHT22;9499;52.472;13.448;2024-01-15T10:28:19;3.00;1.00
18741;DHT22;9499;52.472;13.448;2024-01-15T10:30:46;3.00;1.00
18741;DHT22;9499;52.472;13.448;2024-01-15T10:33:12;3.00;1.00
18741;DHT22;9499;52.472;13.448;2024-01-15T10:35:41;3.00;99.90
18741;DHT22;9499;52.472;13.448;2024-01-15T10:38:07;3.00;1.00
18741;DHT22;9499;52.472;13.448;2024-01-15T10:40:35;3.00;99.90
18741;DHT22;9499;52.472;13.448;2024-01-15T10:43:02;3.00;1.00
18741;DHT22;9499;52.472;13.448;2024-01-15T10:45:29;3.10;99.90
18741;DHT22;9499;52.472;13.448;2024-01-15T10:47:56;3.10;1.00
18741;DHT22;9499;52.472;13.448;2024-01-15T10:50:24;3.10;1.00
18741;DHT22;9499;52.472;13.448;2024-01-15T10:52:51;3.10;99.90
18741;DHT22;9499;52.472;13.448;2024-01-15T10:55:18;3.10;1.00
18741;DHT22;9499;52.472;13.448;2024-01-15T10:57:48;3.10;1.00
18741;DHT22;9499;52.472;13.448;2024-01-15T11:00:15;3.10;1.00
18741;DHT22;9499;52.472;13.448;2024-01-15T11:02:42;3.20;1.00
18741;DHT22;9499;52.472;13.448;2024-01-15T11:05:10;3.20;99.90
18741;DHT22;9499;52.472;13.448;2024-01-15T11:07:39;3.30;1.00
18741;DHT22;9499;52.472;13.448;2024-01-15T11:10:07;3.30;1.00
18741;DHT22;9499;52.472;13.448;2024-01-15T11:12:35;3.30;99.90
18741;DHT22;9499;52.472;13.448;2024-01-15T11:15:04;3.30;1.00
18741;DHT22;9499;52.472;13.448;2024-01-15T11:17:58;3.40;99.90
18741;DHT22;9499;52.472;13.448;2024-01-15T11:20:25;3.40;98.40
18741;DHT22;9499;52.472;13.448;2024-01-15T11:22:52;3.40;99.90
18741;DHT22;9499;52.472;13.448;2024-01-15T11:25:19;3.30;99.90
18741;DHT22;9499;52.472;13.448;2024-01-15T11:27:47;3.30;1.00
18741;DHT22;9499;52.472;13.448;2024-01-15T11:30:18;3.30;1.00
18741;DHT22;9499;52.472;13.448;2024-01-15T11:32:45;3.20;1.00
18741;DHT22;9499;52.472;13.448;2024-01-15T11:35:13;3.20;99.90
18741;DHT22;9499;52.472;13.448;2024-01-15T11:37:58;3.10;1.00
18741;DHT22;9499;52.472;13.448;2024-01-15T11:40:37;3.10;46.00
18741;DHT22;9499;52.472;13.448;2024-01-15T11:43:04;3.10;26.90
18741;DHT22;9499;52.472;13.448;2024-01-15T11:45:33;3.10;99.90
18741;DHT22;9499;52.472;13.448;2024-01-15T11:48:13;3.10;1.00
18741;DHT22;9499;52.472;13.448;2024-01-15T11:50:41;2.90;1.00
18741;DHT22;9499;52.472;13.448;2024-01-15T11:53:16;2.90;1.00
18741;DHT22;9499;52.472;13.448;2024-01-15T11:55:45;2.80;1.00
18741;DHT22;9499;52.472;13.448;2024-01-15T11:58:13;2.70;1.00
18741;DHT22;9499;52.472;13.448;2024-01-15T12:00:43;2.60;1.00
18741;DHT22;9499;52.472;13.448;2024-01-15T12:03:10;2.60;1.00
18741;DHT22;9499;52.472;13.448;2024-01-15T12:05:37;2.60;1.00
18741;DHT22;9499;52.472;13.448;2024-01-15T12:08:04;2.60;1.00
18741;DHT22;9499;52.472;13.448;2024-01-15T12:10:36;2.60;1.00
18741;DHT22;9499;52.472;13.448;2024-01-15T12:13:05;2.60;1.00
18741;DHT22;9499;52.472;13.448;2024-01-15T12:15:33;2.60;1.00
18741;DHT22;9499;52.472;13.448;2024-01-15T12:18:02;2.50;1.00
18741;DHT22;9499;52.472;13.448;2024-01-15T12:20:29;2.60;1.00
18741;DHT22;9499;52.472;13.448;2024-01-15T12:22:55;2.60;1.00
18741;DHT22;9499;52.472;13.448;2024-01-15T12:25:23;2.60;1.00
18741;DHT22;9499;52.472;13.448;2024-01-15T12:27:50;2.60;1.00
18741;DHT22;9499;52.472;13.448;2024-01-15T12:30:16;2.60;1.00
18741;DHT22;9499;52.472;13.448;2024-01-15T12:32:44;2.60;1.00
18741;DHT22;9499;52.472;13.448;2024-01-15T12:35:14;2.60;1.00
18741;DHT22;9499;52.472;13.448;2024-01-15T12:37:42;2.60;1.00
18741;DHT22;9499;52.472;13.448;2024-01-15T12:40:10;2.60;1.00
18741;DHT22;9499;52.472;13.448;2024-01-15T12:42:37;2.60;1.00
18741;DHT22;9499;52.472;13.448;2024-01-15T12:45:06;2.60;1.00
18741;DHT22;9499;52.472;13.448;2024-01-15T12:47:33;2.60;1.00
18741;DHT22;9499;52.472;13.448;2024-01-15T12:50:00;2.50;1.00
18741;DHT22;9499;52.472;13.448;2024-01-15T12:52:29;2.40;1.00
18741;DHT22;9499;52.472;13.448;2024-01-15T12:54:56;2.30;1.00
18741;DHT22;9499;52.472;13.448;2024-01-15T12:57:22;2.20;56.30
18741;DHT22;9499;52.472;13.448;2024-01-15T12:59:49;2.20;55.30
18741;DHT22;9499;52.472;13.448;2024-01-15T13:02:16;2.20;84.70
18741;DHT22;9499;52.472;13.448;2024-01-15T13:04:43;2.20;49.70
18741;DHT22;9499;52.472;13.448;2024-01-15T13:07:09;2.20;83.20
18741;DHT22;9499;52.472;13.448;2024-01-15T13:09:37;2.20;65.70
18741;DHT22;9499;52.472;13.448;2024-01-15T13:12:05;2.20;63.70
18741;DHT22;9499;52.472;13.448;2024-01-15T13:14:31;2.30;74.00
18741;DHT22;9499;52.472;13.448;2024-01-15T13:16:58;2.30;12.00
18741;DHT22;9499;52.472;13.448;2024-01-15T13:19:25;2.30;1.00
18741;DHT22;9499;52.472;13.448;2024-01-15T13:21:52;2.30;1.00
18741;DHT22;9499;52.472;13.448;2024-01-15T13:24:19;2.40;1.00
18741;DHT22;9499;52.472;13.448;2024-01-15T13:26:47;2.30;1.00
18741;DHT22;9499;52.472;13.448;2024-01-15T13:29:13;2.30;1.00
18741;DHT22;9499;52.472;13.448;2024-01-15T13:31:40;2.40;1.00
18741;DHT22;9499;52.472;13.448;2024-01-15T13:34:06;2.40;1.00
18741;DHT22;9499;52.472;13.448;2024-01-15T13:36:34;2.40;1.00
18741;DHT22;9499;52.472;13.448;2024-01-15T13:39:01;2.40;1.00
18741;DHT22;9499;52.472;13.448;2024-01-15T13:41:27;2.40;1.00
18741;DHT22;9499;52.472;13.448;2024-01-15T13:43:56;2.40;1.00
18741;DHT22;9499;52.472;13.448;2024-01-15T13:46:24;2.40;1.00
18741;DHT22;9499;52.472;13.448;2024-01-15T13:48:51;2.40;1.00
18741;DHT22;9499;52.472;13.448;2024-01-15T13:51:18;2.30;1.00
18741;DHT22;9499;52.472;13.448;2024-01-15T13:53:44;2.30;1.00
18741;DHT22;9499;52.472;13.448;2024-01-15T13:56:11;2.30;1.00
18741;DHT22;9499;52.472;13.448;2024-01-15T13:58:38;2.30;1.00
18741;DHT22;9499;52.472;13.448;2024-01-15T14:01:05;2.30;1.00
18741;DHT22;9499;52.472;13.448;2024-01-15T14:03:32;2.30;1.00
18741;DHT22;9499;52.472;13.448;2024-01-15T14:05:59;2.30;1.00
18741;DHT22;9499;52.472;13.448;2024-01-15T14:08:28;2.30;1.00
18741;DHT22;9499;52.472;13.448;2024-01-15T14:10:54;2.40;1.00
18741;DHT22;9499;52.472;13.448;2024-01-15T14:13:22;2.40;1.00
18741;DHT22;9499;52.472;13.448;2024-01-15T14:15:49;2.40;1.00
18741;DHT22;9499;52.472;13.448;2024-01-15T14:18:17;2.40;1.00
18741;DHT22;9499;52.472;13.448;2024-01-15T14:20:43;2.40;1.00
18741;DHT22;9499;52.472;13.448;2024-01-15T14:23:10;2.40;1.00
18741;DHT22;9499;52.472;13.448;2024-01-15T14:25:36;2.40;1.00
18741;DHT22;9499;52.472;13.448;2024-01-15T14:28:03;2.30;1.00
18741;DHT22;9499;52.472;13.448;2024-01-15T14:30:29;2.30;1.00
18741;DHT22;9499;52.472;13.448;2024-01-15T14:32:56;2.30;1.00
18741;DHT22;9499;52.472;13.448;2024-01-15T14:35:24;2.30;1.00
18741;DHT22;9499;52.472;13.448;2024-01-15T14:37:50;2.30;1.00
18741;DHT22;9499;52.472;13.448;2024-01-15T14:40:16;2.30;1.00
18741;DHT22;9499;52.472;13.448;2024-01-15T14:42:43;2.30;99.90
18741;DHT22;9499;52.472;13.448;2024-01-15T14:45:10;2.30;99.90
18741;DHT22;9499;52.472;13.448;2024-01-15T14:47:38;2.30;1.00
18741;DHT22;9499;52.472;13.448;2024-01-15T14:50:05;2.30;99.90
18741;DHT22;9499;52.472;13.448;2024-01-15T14:52:34;2.30;99.90
18741;DHT22;9499;52.472;13.448;2024-01-15T14:55:01;2.30;99.90
18741;DHT22;9499;52.472;13.448;2024-01-15T14:57:28;2.20;99.90
18741;DHT22;9499;52.472;13.448;2024-01-15T14:59:54;2.20;99.90
18741;DHT22;9499;52.472;13.448;2024-01-15T15:02:21;2.20;99.90
18741;DHT22;9499;52.472;13.448;2024-01-15T15:04:47;2.20;1.00
18741;DHT22;9499;52.472;13.448;2024-01-15T15:07:14;2.20;99.90
18741;DHT22;9499;52.472;13.448;2024-01-15T15:09:42;2.20;99.90
18741;DHT22;9499;52.472;13.448;2024-01-15T15:12:08;2.20;99.90
18741;DHT22;9499;52.472;13.448;2024-01-15T15:14:35;2.20;99.90
18741;DHT22;9499;52.472;13.448;2024-01-15T15:17:04;2.20;1.00
18741;DHT22;9499;52.472;13.448;2024-01-15T15:19:30;2.20;99.90
18741;DHT22;9499;52.472;13.448;2024-01-15T15:21:57;2.20;99.90
18741;DHT22;9499;52.472;13.448;2024-01-15T15:24:24;2.20;99.90
18741;DHT22;9499;52.472;13.448;2024-01-15T15:26:52;2.20;99.90
18741;DHT22;9499;52.472;13.448;2024-01-15T15:29:18;2.20;99.90
18741;DHT22;9499;52.472;13.448;2024-01-15T15:31:45;2.20;99.90
18741;DHT22;9499;52.472;13.448;2024-01-15T15:34:13;2.20;99.90
18741;DHT22;9499;52.472;13.448;2024-01-15T15:36:41;2.20;99.90
18741;DHT22;9499;52.472;13.448;2024-01-15T15:39:07;2.20;99.90
18741;DHT22;9499;52.472;13.448;2024-01-15T15:41:34;2.10;1.00
18741;DHT22;9499;52.472;13.448;2024-01-15T15:44:02;2.10;1.00
18741;DHT22;9499;52.472;13.448;2024-01-15T15:46:28;2.10;1.00
18741;DHT22;9499;52.472;13.448;2024-01-15T15:48:55;2.10;1.00
18741;DHT22;9499;52.472;13.448;2024-01-15T15:51:21;2.00;1.00